EEST,Max TemperatureF,Mean TemperatureF,Min TemperatureF,Max Dew PointF,MeanDew PointF,Min DewpointF,Max Humidity, Mean Humidity, Min Humidity, Max Sea Level PressureIn, Mean Sea Level PressureIn, Min Sea Level PressureIn, Max VisibilityMiles, Mean VisibilityMiles, Min VisibilityMiles, Max Wind SpeedMPH, Mean Wind SpeedMPH, Max Gust SpeedMPH,PrecipitationIn, CloudCover, Events, WindDirDegrees
2013-9-1,83,65,47,48,37,27,72,38,6,30.15,30.06,30.01,12,7,6,17,7,32,0.00,2,,241
2013-9-2,83,64,46,48,38,18,87,46,4,30.18,30.12,30.06,12,12,12,20,6,31,0.00,,,8
2013-9-3,81,60,40,45,38,32,70,42,13,30.12,30.06,29.98,12,7,6,16,4,23,0.00,2,,260
2013-9-4,78,62,45,45,38,28,81,43,11,30.06,29.99,29.89,12,7,6,23,7,26,0.00,3,,252
2013-9-5,64,52,39,43,35,26,93,55,14,30.06,30.01,29.98,12,7,6,21,14,,0.00,4,Rain,250
2013-9-6,73,52,30,36,30,21,93,47,15,30.09,30.04,29.95,12,12,12,20,4,22,0.00,,,273
2013-9-7,74,54,34,37,29,21,87,41,7,30.15,30.11,30.06,12,7,6,22,6,,0.00,1,,285
2013-9-8,74,54,35,37,30,21,76,41,8,30.15,30.09,30.01,12,8,6,13,4,,0.00,1,,293
2013-9-9,72,54,36,48,38,33,87,56,16,30.18,30.09,30.04,12,7,6,20,5,25,0.02,5,Rain-Thunderstorm,21
2013-9-10,71,59,46,45,34,12,82,46,14,30.21,30.17,30.12,12,7,6,14,9,16,0.00,3,,23
2013-9-11,74,54,33,34,27,19,81,37,8,30.18,30.14,30.09,12,12,12,14,5,24,0.00,,,269
2013-9-12,77,55,33,34,27,19,75,37,6,30.18,30.14,30.06,12,12,12,16,4,,0.00,,,270
2013-9-13,78,56,35,36,28,23,75,35,7,30.24,30.21,30.18,12,12,12,14,4,,0.00,,,239
2013-9-14,82,60,37,34,29,27,65,33,7,30.24,30.17,30.06,12,9,6,16,4,,0.00,1,,246
2013-9-15,81,59,37,35,28,21,65,31,5,30.09,29.99,29.89,12,8,6,14,5,25,0.00,1,,210
2013-9-16,75,59,43,46,36,28,72,41,13,30.01,29.96,29.92,12,7,6,16,6,16,0.00,2,,264
2013-9-17,77,56,34,49,32,21,94,47,7,29.95,29.91,29.83,12,7,6,39,5,54,0.02,4,Rain,220
2013-9-18,63,55,47,52,48,45,100,79,55,29.98,29.92,29.89,12,6,4,13,4,,0.04,6,Rain,218
2013-9-19,66,58,49,52,48,45,94,70,49,30.04,30.01,29.98,12,7,6,13,5,,0.04,6,Rain,223
2013-9-20,73,58,42,48,44,41,100,63,29,30.09,30.04,30.01,12,6,6,13,4,,0.00,3,Rain,221
2013-9-21,74,58,41,48,42,37,100,60,16,30.09,30.02,29.95,12,7,6,12,4,,0.00,4,,225
2013-9-22,59,54,48,48,45,45,87,75,49,29.98,29.97,29.95,12,7,6,13,6,,0.00,6,Rain,303
2013-9-23,60,52,42,46,41,34,87,67,34,29.95,29.90,29.83,12,7,6,21,9,,0.00,5,Rain,317
2013-9-24,62,48,33,37,33,26,100,56,15,29.95,29.89,29.83,12,7,6,25,8,32,0.00,3,,261
2013-9-25,62,52,41,34,31,27,70,45,17,30.12,30.02,29.92,12,7,6,21,12,31,0.00,3,,251
2013-9-26,66,52,37,37,29,18,66,42,11,30.21,30.17,30.12,12,7,6,20,11,25,0.00,1,,245
2013-9-27,70,48,25,27,22,10,86,41,6,30.18,30.10,30.01,12,8,6,18,3,,0.00,1,,258
2013-9-28,69,49,29,41,29,23,80,44,9,30.06,29.99,29.92,12,7,6,18,5,40,0.02,4,Rain-Thunderstorm,250
2013-9-29,66,49,32,39,33,28,100,52,14,30.09,30.06,30.01,12,7,6,18,9,,0.00,2,,248
2013-9-30,67,49,31,37,34,30,93,53,18,30.09,30.06,30.01,12,7,6,16,5,25,0.00,1,,244